createdAt,value
2023-06-04T00:01:23.332Z,102369.16
2023-06-04T00:03:49.958Z,102368.81
2023-06-04T00:06:16.530Z,102374.16
2023-06-04T00:08:45.651Z,102378.13
2023-06-04T00:11:12.148Z,102373.59
2023-06-04T00:13:38.814Z,102373.75
2023-06-04T00:16:07.924Z,102381.16
2023-06-04T00:18:39.387Z,102379.84
2023-06-04T00:21:08.914Z,102373.53
2023-06-04T00:23:35.557Z,102362.88
2023-06-04T00:26:02.310Z,102377.53
2023-06-04T00:28:33.516Z,102373.69
2023-06-04T00:31:02.658Z,102365.75
2023-06-04T00:33:31.485Z,102372.47
2023-06-04T00:36:00.429Z,102372.94
2023-06-04T00:38:29.179Z,102369.19
2023-06-04T00:40:57.958Z,102372.22
2023-06-04T00:43:32.417Z,102369.16
2023-06-04T00:46:02.212Z,102363.22
2023-06-04T00:48:28.793Z,102363.22
2023-06-04T00:50:58.043Z,102372.84
2023-06-04T00:53:26.287Z,102368.13
2023-06-04T00:55:52.880Z,102366.81
2023-06-04T00:58:21.605Z,102364.69
2023-06-04T01:00:48.668Z,102380.28
2023-06-04T01:03:23.870Z,102373.16
2023-06-04T01:06:03.971Z,102368.63
2023-06-04T01:08:32.977Z,102372.31
2023-06-04T01:10:59.467Z,102362.97
2023-06-04T01:13:30.946Z,102378.72
2023-06-04T01:16:00.910Z,102374.31
2023-06-04T01:18:29.143Z,102366.06
2023-06-04T01:21:19.557Z,102364.59
2023-06-04T01:24:04.866Z,102364.91
2023-06-04T01:26:32.809Z,102364.38
2023-06-04T01:29:00.366Z,102372.44
2023-06-04T01:31:34.048Z,102373.38
2023-06-04T01:34:03.136Z,102367.88
2023-06-04T01:36:33.569Z,102368.44
2023-06-04T01:39:01.768Z,102377.28
2023-06-04T01:41:30.533Z,102373.09
2023-06-04T01:44:00.049Z,102366.63
2023-06-04T01:46:28.751Z,102369.47
2023-06-04T01:48:55.310Z,102370.88
2023-06-04T01:51:21.775Z,102366.69
2023-06-04T01:53:52.852Z,102366.03
2023-06-04T01:56:22.105Z,102374.03
2023-06-04T01:58:51.117Z,102372.56
2023-06-04T02:01:18.097Z,102376.22
2023-06-04T02:03:45.774Z,102368.66
2023-06-04T02:06:12.591Z,102368.97
2023-06-04T02:08:42.248Z,102376.00
2023-06-04T02:11:11.860Z,102373.16
2023-06-04T02:13:38.424Z,102375.56
2023-06-04T02:16:07.366Z,102366.41
2023-06-04T02:18:36.225Z,102359.78
2023-06-04T02:21:05.115Z,102370.22
2023-06-04T02:23:34.136Z,102367.91
2023-06-04T02:26:02.977Z,102375.78
2023-06-04T02:28:32.111Z,102374.59
2023-06-04T02:30:58.703Z,102373.25
2023-06-04T02:33:25.241Z,102368.28
2023-06-04T02:35:52.154Z,102364.22
2023-06-04T02:38:21.030Z,102369.81
2023-06-04T02:40:47.521Z,102368.47
2023-06-04T02:43:16.392Z,102372.00
2023-06-04T02:45:42.956Z,102363.75
2023-06-04T02:48:09.706Z,102371.75
2023-06-04T02:50:36.258Z,102364.47
2023-06-04T02:53:07.878Z,102354.63
2023-06-04T02:55:37.488Z,102365.19
2023-06-04T02:58:06.301Z,102363.72
2023-06-04T03:00:33.763Z,102361.69
2023-06-04T03:03:03.137Z,102366.81
2023-06-04T03:05:34.095Z,102364.00
2023-06-04T03:08:05.006Z,102373.06
2023-06-04T03:10:34.990Z,102374.03
2023-06-04T03:13:01.572Z,102361.47
2023-06-04T03:15:30.326Z,102361.91
2023-06-04T03:17:58.495Z,102364.72
2023-06-04T03:20:30.839Z,102361.34
2023-06-04T03:22:57.456Z,102372.44
2023-06-04T03:25:24.458Z,102372.44
2023-06-04T03:27:53.155Z,102370.28
2023-06-04T03:30:19.863Z,102371.53
2023-06-04T03:32:48.629Z,102374.09
2023-06-04T03:35:20.819Z,102372.75
2023-06-04T03:37:47.373Z,102378.84
2023-06-04T03:40:14.511Z,102375.59
2023-06-04T03:42:42.044Z,102376.53
2023-06-04T03:45:08.992Z,102367.50
2023-06-04T03:47:35.620Z,102376.16
2023-06-04T03:50:03.760Z,102374.69
2023-06-04T03:52:30.405Z,102373.88
2023-06-04T03:54:57.285Z,102371.31
2023-06-04T03:57:24.193Z,102376.28
2023-06-04T03:59:53.089Z,102371.00
2023-06-04T04:02:24.637Z,102375.06
2023-06-04T04:04:55.388Z,102371.56
2023-06-04T04:07:22.726Z,102375.59
2023-06-04T04:09:49.240Z,102371.81
2023-06-04T04:12:19.268Z,102362.88
2023-06-04T04:14:45.780Z,102374.50
2023-06-04T04:17:15.301Z,102371.06
2023-06-04T04:19:44.088Z,102376.06
2023-06-04T04:22:14.083Z,102376.06
2023-06-04T04:24:42.916Z,102379.00
2023-06-04T04:27:16.749Z,102380.50
2023-06-04T04:29:48.494Z,102380.22
2023-06-04T04:32:17.821Z,102378.59
2023-06-04T04:34:56.000Z,102372.22
2023-06-04T04:37:23.128Z,102383.16
2023-06-04T04:39:52.998Z,102380.97
2023-06-04T04:42:23.426Z,102375.00
2023-06-04T04:44:53.070Z,102378.34
2023-06-04T04:47:22.002Z,102376.41
2023-06-04T04:49:50.839Z,102378.72
2023-06-04T04:52:22.486Z,102380.53
2023-06-04T04:54:51.827Z,102379.00
2023-06-04T04:57:23.417Z,102378.81
2023-06-04T04:59:50.457Z,102375.81
2023-06-04T05:02:17.051Z,102374.34
2023-06-04T05:04:43.740Z,102373.78
2023-06-04T05:07:10.474Z,102368.25
2023-06-04T05:09:37.075Z,102380.97
2023-06-04T05:12:09.387Z,102382.25
2023-06-04T05:14:38.463Z,102376.91
2023-06-04T05:17:07.634Z,102383.53
2023-06-04T05:19:36.848Z,102381.28
2023-06-04T05:22:03.696Z,102382.75
2023-06-04T05:24:30.239Z,102381.47
2023-06-04T05:27:00.015Z,102377.81
2023-06-04T05:29:28.987Z,102375.81
2023-06-04T05:31:55.507Z,102376.63
2023-06-04T05:34:22.712Z,102370.81
2023-06-04T05:36:49.556Z,102366.78
2023-06-04T05:39:20.874Z,102378.25
2023-06-04T05:41:52.680Z,102377.88
2023-06-04T05:44:19.315Z,102375.81
2023-06-04T05:46:47.940Z,102368.72
2023-06-04T05:49:14.625Z,102382.75
2023-06-04T05:51:43.522Z,102375.28
2023-06-04T05:54:12.579Z,102378.69
2023-06-04T05:56:43.864Z,102377.84
2023-06-04T05:59:10.437Z,102379.59
2023-06-04T06:01:37.465Z,102385.09
2023-06-04T06:04:04.153Z,102378.63
2023-06-04T06:06:33.152Z,102387.31
2023-06-04T06:09:04.195Z,102383.06
2023-06-04T06:11:33.087Z,102393.91
2023-06-04T06:13:59.657Z,102385.03
2023-06-04T06:16:31.070Z,102390.03
2023-06-04T06:18:57.573Z,102388.22
2023-06-04T06:21:27.127Z,102389.97
2023-06-04T06:23:54.511Z,102387.09
2023-06-04T06:26:26.337Z,102391.09
2023-06-04T06:28:52.848Z,102392.66
2023-06-04T06:31:21.973Z,102393.06
2023-06-04T06:33:48.524Z,102390.66
2023-06-04T06:36:15.186Z,102394.31
2023-06-04T06:38:44.204Z,102389.03
2023-06-04T06:41:16.030Z,102388.78
2023-06-04T06:43:42.558Z,102393.09
2023-06-04T06:46:09.221Z,102387.66
2023-06-04T06:48:38.103Z,102391.13
2023-06-04T06:51:04.810Z,102389.69
2023-06-04T06:53:31.425Z,102387.41
2023-06-04T06:56:00.528Z,102396.44
2023-06-04T06:58:29.579Z,102393.75
2023-06-04T07:00:57.633Z,102399.41
2023-06-04T07:03:29.134Z,102401.44
2023-06-04T07:05:58.072Z,102400.28
2023-06-04T07:08:24.661Z,102402.63
2023-06-04T07:10:51.213Z,102399.44
2023-06-04T07:13:20.845Z,102407.50
2023-06-04T07:15:47.534Z,102407.84
2023-06-04T07:18:16.414Z,102411.75
2023-06-04T07:20:45.473Z,102409.47
2023-06-04T07:23:11.993Z,102410.09
2023-06-04T07:25:39.251Z,102415.44
2023-06-04T07:28:05.982Z,102413.25
2023-06-04T07:30:35.789Z,102413.50
2023-06-04T07:33:05.084Z,102413.69
2023-06-04T07:35:36.077Z,102406.53
2023-06-04T07:38:04.845Z,102412.75
2023-06-04T07:40:31.582Z,102412.44
2023-06-04T07:43:00.268Z,102419.31
2023-06-04T07:45:31.420Z,102407.22
2023-06-04T07:47:59.686Z,102410.94
2023-06-04T07:50:26.516Z,102414.34
2023-06-04T07:52:53.191Z,102418.53
2023-06-04T07:55:24.612Z,102410.63
2023-06-04T07:57:56.167Z,102414.81
2023-06-04T08:00:25.082Z,102417.66
2023-06-04T08:02:55.722Z,102416.16
2023-06-04T08:05:24.514Z,102408.56
2023-06-04T08:07:51.133Z,102415.09
2023-06-04T08:10:19.998Z,102416.84
2023-06-04T08:12:48.957Z,102420.06
2023-06-04T08:15:15.643Z,102412.75
2023-06-04T08:17:44.971Z,102407.13
2023-06-04T08:20:14.093Z,102418.53
2023-06-04T08:22:41.550Z,102413.81
2023-06-04T08:25:10.856Z,102410.41
2023-06-04T08:27:38.465Z,102410.22
2023-06-04T08:30:06.843Z,102415.31
2023-06-04T08:32:33.929Z,102415.03
2023-06-04T08:35:06.103Z,102422.56
2023-06-04T08:37:35.134Z,102414.22
2023-06-04T08:40:01.727Z,102420.03
2023-06-04T08:42:38.670Z,102418.81
2023-06-04T08:45:06.785Z,102418.94
2023-06-04T08:47:36.219Z,102419.59
2023-06-04T08:50:12.540Z,102415.94
2023-06-04T08:52:39.629Z,102420.41
2023-06-04T08:55:07.310Z,102417.66
2023-06-04T08:57:38.749Z,102420.75
2023-06-04T09:00:09.425Z,102419.31
2023-06-04T09:02:41.978Z,102423.69
2023-06-04T09:05:10.386Z,102424.28
2023-06-04T09:07:41.334Z,102419.84
2023-06-04T09:10:12.918Z,102423.84
2023-06-04T09:12:44.469Z,102423.16
2023-06-04T09:15:13.867Z,102424.97
2023-06-04T09:17:45.309Z,102427.47
2023-06-04T09:20:27.231Z,102425.78
2023-06-04T09:22:53.898Z,102414.38
2023-06-04T09:25:28.369Z,102413.69
2023-06-04T09:28:06.626Z,102411.19
2023-06-04T09:30:33.279Z,102407.88
2023-06-04T09:33:10.605Z,102413.31
2023-06-04T09:35:37.521Z,102413.44
2023-06-04T09:38:08.531Z,102411.72
2023-06-04T09:40:39.063Z,102420.63
2023-06-04T09:43:06.926Z,102409.91
2023-06-04T09:45:36.266Z,102408.66
2023-06-04T09:48:05.624Z,102407.50
2023-06-04T09:50:35.481Z,102409.56
2023-06-04T09:53:17.075Z,102409.16
2023-06-04T09:55:57.224Z,102409.69
2023-06-04T09:58:31.393Z,102408.13
2023-06-04T10:01:04.738Z,102410.25
2023-06-04T10:03:38.824Z,102409.28
2023-06-04T10:06:07.086Z,102413.13
2023-06-04T10:08:35.302Z,102412.69
2023-06-04T10:11:03.630Z,102405.91
2023-06-04T10:13:40.466Z,102407.78
2023-06-04T10:16:21.188Z,102404.75
2023-06-04T10:18:57.992Z,102403.19
2023-06-04T10:21:24.907Z,102419.78
2023-06-04T10:23:51.599Z,102409.38
2023-06-04T10:26:19.085Z,102410.16
2023-06-04T10:28:45.695Z,102409.72
2023-06-04T10:31:12.854Z,102406.00
2023-06-04T10:33:40.380Z,102403.16
2023-06-04T10:36:25.124Z,102409.91
2023-06-04T10:38:59.639Z,102408.06
2023-06-04T10:41:31.089Z,102410.66
2023-06-04T10:44:05.517Z,102402.97
2023-06-04T10:46:42.544Z,102400.69
2023-06-04T10:49:13.516Z,102395.75
2023-06-04T10:51:40.222Z,102403.72
2023-06-04T10:54:11.744Z,102399.72
2023-06-04T10:56:38.567Z,102409.53
2023-06-04T10:59:18.544Z,102396.44
2023-06-04T11:01:48.299Z,102400.91
2023-06-04T11:04:22.614Z,102404.50
2023-06-04T11:07:10.638Z,102402.50
2023-06-04T11:09:49.598Z,102396.31
2023-06-04T11:12:18.649Z,102389.94
2023-06-04T11:14:59.463Z,102389.63
2023-06-04T11:17:26.082Z,102383.72
2023-06-04T11:19:56.572Z,102391.28
2023-06-04T11:22:26.182Z,102392.00
2023-06-04T11:25:01.780Z,102390.22
2023-06-04T11:27:36.587Z,102385.38
2023-06-04T11:30:08.714Z,102380.59
2023-06-04T11:32:35.419Z,102382.03
2023-06-04T11:35:07.643Z,102379.88
2023-06-04T11:37:36.282Z,102374.78
2023-06-04T11:40:04.497Z,102380.38
2023-06-04T11:42:37.245Z,102377.03
2023-06-04T11:45:07.584Z,102368.91
2023-06-04T11:47:34.210Z,102378.28
2023-06-04T11:50:00.874Z,102368.91
2023-06-04T11:52:29.063Z,102369.78
2023-06-04T11:54:58.390Z,102365.53
2023-06-04T11:57:25.094Z,102363.91
2023-06-04T11:59:51.769Z,102358.47
2023-06-04T12:02:24.561Z,102349.94
2023-06-04T12:04:53.715Z,102353.91
2023-06-04T12:07:26.535Z,102356.78
2023-06-04T12:09:57.830Z,102351.00
2023-06-04T12:12:25.237Z,102344.22
2023-06-04T12:15:01.033Z,102344.47
2023-06-04T12:17:27.940Z,102344.31
2023-06-04T12:19:54.477Z,102343.13
2023-06-04T12:22:21.056Z,102335.28
2023-06-04T12:24:54.998Z,102341.34
2023-06-04T12:27:26.690Z,102350.72
2023-06-04T12:30:03.486Z,102351.53
2023-06-04T12:32:35.601Z,102347.63
2023-06-04T12:35:04.706Z,102355.16
2023-06-04T12:37:33.388Z,102349.63
2023-06-04T12:40:00.007Z,102347.13
2023-06-04T12:42:30.080Z,102353.66
2023-06-04T12:44:56.907Z,102349.38
2023-06-04T12:47:24.405Z,102358.38
2023-06-04T12:49:54.853Z,102352.81
2023-06-04T12:52:23.912Z,102352.47
2023-06-04T12:54:50.521Z,102345.88
2023-06-04T12:57:17.088Z,102342.22
2023-06-04T12:59:43.760Z,102353.66
2023-06-04T13:02:17.355Z,102337.72
2023-06-04T13:04:47.042Z,102341.53
2023-06-04T13:07:16.610Z,102341.88
2023-06-04T13:09:43.414Z,102336.88
2023-06-04T13:12:12.283Z,102329.31
2023-06-04T13:14:45.966Z,102335.88
2023-06-04T13:17:22.166Z,102337.72
2023-06-04T13:19:49.492Z,102332.31
2023-06-04T13:22:18.334Z,102338.50
2023-06-04T13:24:47.434Z,102334.88
2023-06-04T13:27:17.392Z,102327.59
2023-06-04T13:29:46.211Z,102332.47
2023-06-04T13:32:13.137Z,102329.34
2023-06-04T13:34:39.764Z,102337.00
2023-06-04T13:37:12.070Z,102335.22
2023-06-04T13:39:39.816Z,102336.66
2023-06-04T13:42:06.636Z,102328.19
2023-06-04T13:44:35.519Z,102333.06
2023-06-04T13:47:04.617Z,102333.97
2023-06-04T13:49:34.074Z,102327.66
2023-06-04T13:52:00.725Z,102330.47
2023-06-04T13:54:29.998Z,102323.13
2023-06-04T13:56:58.808Z,102324.47
2023-06-04T13:59:25.438Z,102323.66
2023-06-04T14:01:52.019Z,102324.16
2023-06-04T14:04:21.203Z,102323.72
2023-06-04T14:06:48.220Z,102317.97
2023-06-04T14:09:14.989Z,102319.97
2023-06-04T14:11:41.537Z,102309.38
2023-06-04T14:14:08.727Z,102312.00
2023-06-04T14:16:35.822Z,102311.41
2023-06-04T14:19:04.893Z,102304.00
2023-06-04T14:21:33.914Z,102309.56
2023-06-04T14:24:03.446Z,102303.06
2023-06-04T14:26:30.441Z,102305.94
2023-06-04T14:28:57.645Z,102304.78
2023-06-04T14:31:27.721Z,102306.44
2023-06-04T14:33:58.812Z,102301.78
2023-06-04T14:36:27.600Z,102301.34
2023-06-04T14:38:56.433Z,102296.00
2023-06-04T14:41:25.078Z,102300.25
2023-06-04T14:43:51.568Z,102297.47
2023-06-04T14:46:18.235Z,102298.19
2023-06-04T14:48:44.971Z,102298.53
2023-06-04T14:51:13.793Z,102295.31
2023-06-04T14:53:40.399Z,102303.88
2023-06-04T14:56:07.634Z,102297.63
2023-06-04T14:58:38.764Z,102296.78
2023-06-04T15:01:09.287Z,102300.09
2023-06-04T15:03:38.528Z,102294.59
2023-06-04T15:08:37.198Z,102295.25
2023-06-04T15:11:06.291Z,102289.47
2023-06-04T15:13:32.904Z,102288.94
2023-06-04T15:15:59.440Z,102293.06
2023-06-04T15:18:26.069Z,102286.31
2023-06-04T15:20:52.746Z,102288.06
2023-06-04T15:23:19.708Z,102283.66
2023-06-04T15:25:46.262Z,102282.63
2023-06-04T15:28:12.849Z,102286.28
2023-06-04T15:30:39.437Z,102283.22
2023-06-04T15:33:05.988Z,102279.56
2023-06-04T15:35:32.558Z,102283.47
2023-06-04T15:37:59.195Z,102274.09
2023-06-04T15:40:28.150Z,102283.22
2023-06-04T15:42:54.749Z,102285.94
2023-06-04T15:45:25.663Z,102290.63
2023-06-04T15:47:55.142Z,102280.59
2023-06-04T15:50:21.724Z,102287.66
2023-06-04T15:52:54.977Z,102286.66
2023-06-04T15:55:22.708Z,102281.72
2023-06-04T15:57:51.717Z,102287.44
2023-06-04T16:00:20.756Z,102278.44
2023-06-04T16:02:49.688Z,102274.91
2023-06-04T16:05:17.081Z,102282.88
2023-06-04T16:07:43.456Z,102282.41
2023-06-04T16:10:10.499Z,102279.34
2023-06-04T16:12:36.989Z,102279.91
2023-06-04T16:15:08.843Z,102283.53
2023-06-04T16:17:43.427Z,102273.72
2023-06-04T16:20:12.675Z,102272.81
2023-06-04T16:22:39.227Z,102274.75
2023-06-04T16:25:06.322Z,102275.97
2023-06-04T16:27:33.066Z,102268.22
2023-06-04T16:29:59.921Z,102263.78
2023-06-04T16:32:26.573Z,102271.72
2023-06-04T16:34:58.547Z,102267.81
2023-06-04T16:37:29.684Z,102268.06
2023-06-04T16:39:56.590Z,102267.50
2023-06-04T16:42:25.856Z,102263.72
2023-06-04T16:44:56.310Z,102264.22
2023-06-04T16:47:24.940Z,102260.34
2023-06-04T16:49:51.572Z,102261.56
2023-06-04T16:52:20.422Z,102269.00
2023-06-04T16:54:51.764Z,102264.50
2023-06-04T16:57:20.052Z,102260.72
2023-06-04T16:59:48.930Z,102257.06
2023-06-04T17:02:15.665Z,102266.41
2023-06-04T17:04:42.985Z,102264.59
2023-06-04T17:07:11.909Z,102259.03
2023-06-04T17:09:38.814Z,102254.06
2023-06-04T17:12:09.005Z,102251.69
2023-06-04T17:14:36.814Z,102259.59
2023-06-04T17:17:10.789Z,102252.69
2023-06-04T17:19:41.852Z,102257.34
2023-06-04T17:22:08.727Z,102260.44
2023-06-04T17:24:35.282Z,102258.91
2023-06-04T17:27:01.817Z,102256.56
2023-06-04T17:29:28.303Z,102253.00
2023-06-04T17:31:58.017Z,102252.19
2023-06-04T17:34:26.935Z,102256.25
2023-06-04T17:36:53.569Z,102256.47
2023-06-04T17:39:23.188Z,102263.34
2023-06-04T17:41:53.124Z,102264.00
2023-06-04T17:44:19.625Z,102266.88
2023-06-04T17:46:48.825Z,102261.84
2023-06-04T17:49:16.217Z,102270.69
2023-06-04T17:51:47.282Z,102263.94
2023-06-04T17:54:16.155Z,102266.00
2023-06-04T17:56:42.693Z,102274.88
2023-06-04T17:59:14.932Z,102272.69
2023-06-04T18:01:41.461Z,102276.34
2023-06-04T18:04:15.526Z,102270.56
2023-06-04T18:06:44.338Z,102285.66
2023-06-04T18:09:11.091Z,102276.25
2023-06-04T18:11:37.656Z,102284.50
2023-06-04T18:14:06.137Z,102281.50
2023-06-04T18:16:35.853Z,102284.50
2023-06-04T18:19:02.397Z,102281.50
2023-06-04T18:21:29.008Z,102275.31
2023-06-04T18:24:00.780Z,102283.38
2023-06-04T18:26:29.778Z,102282.59
2023-06-04T18:28:56.374Z,102288.63
2023-06-04T18:31:22.962Z,102292.81
2023-06-04T18:34:05.121Z,102290.22
2023-06-04T18:36:34.628Z,102291.25
2023-06-04T18:39:04.932Z,102293.06
2023-06-04T18:41:31.495Z,102296.09
2023-06-04T18:43:58.053Z,102306.69
2023-06-04T18:46:27.163Z,102306.69
2023-06-04T18:48:58.364Z,102305.66
2023-06-04T18:51:24.877Z,102305.44
2023-06-04T18:53:54.024Z,102305.84
2023-06-04T18:56:26.489Z,102310.81
2023-06-04T18:58:53.964Z,102313.00
2023-06-04T19:01:20.500Z,102316.19
2023-06-04T19:03:49.659Z,102313.56
2023-06-04T19:06:16.618Z,102310.97
2023-06-04T19:08:43.418Z,102318.13
2023-06-04T19:11:12.364Z,102313.47
2023-06-04T19:13:38.859Z,102315.25
2023-06-04T19:16:06.560Z,102322.03
2023-06-04T19:18:35.717Z,102319.16
2023-06-04T19:21:04.902Z,102327.69
2023-06-04T19:23:35.098Z,102331.06
2023-06-04T19:26:02.149Z,102326.22
2023-06-04T19:28:28.863Z,102330.75
2023-06-04T19:30:55.484Z,102336.06
2023-06-04T19:33:24.867Z,102339.19
2023-06-04T19:35:54.297Z,102337.34
2023-06-04T19:38:25.821Z,102350.28
2023-06-04T19:40:52.379Z,102355.78
2023-06-04T19:43:23.973Z,102357.09
2023-06-04T19:45:57.764Z,102357.63
2023-06-04T19:48:24.527Z,102354.16
2023-06-04T19:50:55.680Z,102361.09
2023-06-04T19:53:26.769Z,102365.22
2023-06-04T19:55:55.849Z,102365.75
2023-06-04T19:58:26.671Z,102361.50
2023-06-04T20:00:54.956Z,102373.56
2023-06-04T20:03:24.492Z,102381.84
2023-06-04T20:05:51.125Z,102380.75
2023-06-04T20:08:20.760Z,102386.69
2023-06-04T20:10:49.440Z,102383.56
2023-06-04T20:13:16.435Z,102382.03
2023-06-04T20:15:43.336Z,102386.13
2023-06-04T20:18:09.943Z,102397.59
2023-06-04T20:20:39.006Z,102397.66
2023-06-04T20:23:05.669Z,102396.94
2023-06-04T20:25:34.618Z,102404.25
2023-06-04T20:28:07.953Z,102407.53
2023-06-04T20:30:34.567Z,102407.88
2023-06-04T20:33:06.594Z,102411.00
2023-06-04T20:35:35.726Z,102414.13
2023-06-04T20:38:03.864Z,102424.53
2023-06-04T20:40:35.414Z,102423.00
2023-06-04T20:43:02.505Z,102422.72
2023-06-04T20:45:32.428Z,102428.25
2023-06-04T20:48:01.254Z,102417.78
2023-06-04T20:50:30.198Z,102422.00
2023-06-04T20:52:59.165Z,102428.53
2023-06-04T20:55:25.866Z,102430.03
2023-06-04T20:57:52.405Z,102432.94
2023-06-04T21:00:21.680Z,102432.47
2023-06-04T21:02:48.423Z,102434.94
2023-06-04T21:05:15.066Z,102436.59
2023-06-04T21:07:41.625Z,102437.28
2023-06-04T21:10:11.446Z,102437.16
2023-06-04T21:12:40.048Z,102436.84
2023-06-04T21:15:09.351Z,102442.53
2023-06-04T21:17:38.336Z,102446.72
2023-06-04T21:20:05.337Z,102445.47
2023-06-04T21:22:31.855Z,102453.88
2023-06-04T21:24:58.459Z,102451.78
2023-06-04T21:27:25.035Z,102450.50
2023-06-04T21:29:54.142Z,102453.94
2023-06-04T21:32:20.726Z,102452.28
2023-06-04T21:34:52.195Z,102460.72
2023-06-04T21:37:21.421Z,102452.63
2023-06-04T21:39:50.028Z,102458.81
2023-06-04T21:42:19.041Z,102456.72
2023-06-04T21:44:45.616Z,102453.34
2023-06-04T21:47:15.781Z,102458.31
2023-06-04T21:49:44.576Z,102452.53
2023-06-04T21:52:25.499Z,102455.59
2023-06-04T21:54:54.953Z,102459.00
2023-06-04T21:57:21.462Z,102459.78
2023-06-04T21:59:53.030Z,102454.00
2023-06-04T22:02:19.884Z,102461.41
2023-06-04T22:04:51.311Z,102461.88
2023-06-04T22:07:20.538Z,102460.13
2023-06-04T22:09:47.080Z,102461.06
2023-06-04T22:12:13.620Z,102461.06
2023-06-04T22:14:42.710Z,102459.13
2023-06-04T22:17:11.501Z,102456.19
2023-06-04T22:19:40.293Z,102464.41
2023-06-04T22:22:06.849Z,102462.28
2023-06-04T22:24:33.560Z,102459.41
2023-06-04T22:27:00.338Z,102469.22
2023-06-04T22:29:26.849Z,102457.75
2023-06-04T22:31:53.454Z,102458.06
2023-06-04T22:34:20.085Z,102463.56
2023-06-04T22:36:46.600Z,102463.56
2023-06-04T22:39:17.668Z,102461.94
2023-06-04T22:41:46.615Z,102467.56
2023-06-04T22:44:13.149Z,102471.94
2023-06-04T22:46:42.297Z,102470.28
2023-06-04T22:49:08.930Z,102468.97
2023-06-04T22:51:38.805Z,102471.88
2023-06-04T22:54:05.384Z,102474.91
2023-06-04T22:56:34.439Z,102474.56
2023-06-04T22:59:03.501Z,102476.97
2023-06-04T23:01:32.484Z,102470.31
2023-06-04T23:03:59.081Z,102463.38
2023-06-04T23:06:26.074Z,102473.34
2023-06-04T23:08:52.612Z,102471.41
2023-06-04T23:11:19.176Z,102475.72
2023-06-04T23:13:46.054Z,102470.50
2023-06-04T23:16:12.622Z,102481.94
2023-06-04T23:18:39.204Z,102482.06
2023-06-04T23:21:08.284Z,102480.25
2023-06-04T23:23:35.132Z,102483.13
2023-06-04T23:26:06.400Z,102487.63
2023-06-04T23:28:32.988Z,102487.91
2023-06-04T23:30:59.522Z,102486.47
2023-06-04T23:33:28.317Z,102485.81
2023-06-04T23:35:54.860Z,102484.50
2023-06-04T23:38:23.934Z,102484.34
2023-06-04T23:40:50.571Z,102482.88
2023-06-04T23:43:19.478Z,102486.03
2023-06-04T23:45:49.081Z,102484.03
2023-06-04T23:48:17.973Z,102486.47
2023-06-04T23:50:44.542Z,102482.56
2023-06-04T23:53:11.166Z,102485.75
2023-06-04T23:55:40.559Z,102481.69
2023-06-04T23:58:07.174Z,102480.38
